Airfield :
LOGIN :

Register | Disclaimer

   EN    FR    IT 

 










Legend :    VFR   Marginal VFR   IFR   Intensive IFR   Very Intensive IFR
Visi :
Ceiling :
>= 8 km
>= 3000ft
5 to 8 km
1000 to 3000 ft
1500m to 5 km
500 to 1000 ft
800 to 1500m
200 to 500 ft
< 800m
< 200 ft
Symbols :   Thunderstorms  Fog  Heavy snow  Heavy precipitations  Wind > 20 kt
SIGMETs :     Misc.  Thunderstorms  Icing  Turbulence  Mountain Waves  Volcanic Ashes






- Airport Elevation : 1910 ft
- IATA code : RDZ


LFCR - Rodez

CURRENT METAR :
  • 101200Z AUTO 13018KT 9999 BKN018 BKN052 OVC080 12/07 Q1014 TEMPO 15018G28KT

EXPIRED METARs :
  • 101130Z AUTO 14016KT 9999 OVC019 12/07 Q1014 BECMG 15016G26KT
  • 101100Z AUTO 13020KT 9999 BKN019 OVC054 13/07 Q1015 BECMG 15016G26KT
  • 101030Z AUTO 14019KT 9999 BKN019 OVC054 11/07 Q1015 BECMG 15016G26KT
  • 101000Z AUTO 14017KT 9999 BKN021 BKN050 11/07 Q1015 BECMG 15016G26KT
  • 100930Z AUTO 14016KT 9999 BKN019 OVC054 11/06 Q1015 BECMG 15016G26KT

TAF TAF LFCR
Valid from the 10 at 12:00 until the 11 at 12:00 UTC


101100Z 1012/1112 14014KT 9999 BKN020
TEMPO 1012/1018 15018G28KT
BECMG 1017/1019 BKN012
TEMPO 1020/1107 OVC009
BECMG 1107/1109 BKN020



MET'MAP, your aeronautical weather chart ! - Copyright ORBIFLY December 2007 - Disclaimer

ORBIFLY MET'MAP TEAM :

Programming & Development : Alexandra Zaïnal
Concept & original design : Baudouin d'Aumeries
Assistance for programming : Marc-Olivier Méhu
Technical & hardware support : Manuel Goepfert

Contact : metmap@orbifly.com




SOURCES & CREDITS :

   NOAA